Text Box: All records at near 07:00 local time
Kleivo 1 weather for May 2009
Month no. 30
Obs.
Da.
Temp. Dew Point Precip. Wind
Speed
Wind gusts Cloud cover Press. Humidity Wind dir. Sunny OPT
01.05.2009 7,8 6,9 0,0 5,6 5,6 3 1004,6 94,0 157,5 1 67,5 %
02.05.2009 8,6 7,4 0,5 7,4 7,4 10 1001,2 92,0 135,0 1 82,5 %
03.05.2009 5,4 3,9 2,0 9,3 9,3 10 1001,9 90,0 157,5 1 80,0 %
04.05.2009 3,8 2,8 12,3 1,9 1,9 3 997,2 93,0 0,0 1 55,0 %
05.05.2009 6,7 5,8 4,1 7,4 7,9 3 985,7 94,0 337,5 1 60,0 %
06.05.2009 4,4 3,2 8,2 1,9 1,9 1 980,6 92,0 45,0   55,0 %
07.05.2009 7,6 6,7 3,0 7,4 7,4 3 976,5 94,0 225,0 1 62,5 %
08.05.2009 9,6 3,8 9,3 22,2 22,2 2 976,2 67,0 180,0   45,0 %
09.05.2009 6,6 5,2 0,0 14,8 14,8 1 986,3 91,0 112,5   52,5 %
10.05.2009 5,6 4,1 3,1 3,7 3,7 1 990,1 90,0 112,5   57,5 %
11.05.2009 2,8 0,2 1,5 3,7 3,7 8 1006,7 83,0 337,5 1 75,0 %
12.05.2009 3,8 2,6 0,5 5,6 5,6 10 1011,7 92,0 337,5 1 80,0 %
13.05.2009 3,6 2,3 0,0 5,6 5,6 10 1008,7 91,0 0,0 1 80,0 %
14.05.2009 5,9 4,4 0,0 4,7 4,7 10 1005,6 90,0 0,0 1 82,5 %
15.05.2009 10,1 -1,0 0,0 11,1 11,1 10 1003,9 46,0 112,5 1 82,5 %
16.05.2009 8,9 0,6 0,0 5,6 0,0 10 996,8 56,0 315,0 1 85,0 %
17.05.2009 11,6 3,1 0,0 5,6 5,6 2 997,5 56,0 180,0   67,5 %
18.05.2009 12,1 4,3 0,0 5,6 5,6 8 992,4 59,0 135,0 1 82,5 %
19.05.2009 9,6 6,3 0,0 12,6 12,6 1 996,2 80,0 157,5   57,5 %
20.05.2009 9,5 6,4 3,1 9,3 9,3 3 997,9 81,0 135,0 1 62,5 %
21.05.2009 9,3 8,1 1,5 3,7 3,7 1 993,5 92,0 157,5   62,5 %
22.05.2009 7,2 6,2 14,9 0,0 0,0 1 986,3 93,0 135,0   52,5 %
23.05.2009 10,7 9,1 5,6 1,9 1,9 1 995,8 90,0 0,0   65,0 %
24.05.2009 10,6 6,3 0,0 3,7 3,7 2 993,1 75,0 157,5   67,5 %
25.05.2009 9,2 5,6 0,0 9,3 9,3 1 998,9 78,0 135,0   60,0 %
26.05.2009 10,1 8,1 0,0 11,1 11,1 10 989,4 87,0 180,0 1 82,5 %
27.05.2009 8,3 6,8 13,3 3,7 3,7 3 988,0 90,0 0,0 1 57,5 %
28.05.2009 7,3 5,6 5,6 3,7 3,7 2 995,1 89,0 0,0   60,0 %
29.05.2009 9,6 5,9 0,0 7,4 7,4 3 1014,4 78,0 90,0 1 65,0 %
30.05.2009 12,1 6,3 0,0 0,0 0,0 7 1034,8 68,0 270,0 1 82,5 %
31.05.2009 21,9 6,0 0,0 0,0 0,0 10 1015,1 84,0 157,5 1 100,0 %
Avrg/Sum 8,4 4,9 88,5 6,3 6,1 4,8 997,5 82,4 143,7 19 68,6 %